Piedmont, South Carolina
Current Conditions -  °F | °C
As of 4:55 AM on Monday 22 Dec 2014 (Local Time) from KGYH Reporting Station
Haze Haze  
Wind Chill: 31°   Ceiling: 500
Heat Index: 39°   Visibility: 5mi
Dew Point: 39°   Wind: 14mph
Humidity: 100%   Direction: 60°ENE
Pressure: 30.08"   Gusts: 18mph
Location:  34.7°N, 82.46°W
Report Text: KGYH 220955Z AUTO 06012G16KT 5SM BR OVC005 04/04 A3008 RMK AO2
Loading
Personal Weather Stations






























Interactive Weather Map New forecast layout! Learn more

10-Day Weather Forecast

Advertisements
Track Severe Weather on mobile